sensor_id;sensor_type;location;lat;lon;timestamp;P1;durP1;ratioP1;P2;durP2;ratioP2
11113;SDS011;5610;52.154;9.198;2022-08-21T00:01:18;5.00;;;2.80;;
11113;SDS011;5610;52.154;9.198;2022-08-21T00:04:06;5.30;;;2.90;;
11113;SDS011;5610;52.154;9.198;2022-08-21T00:06:52;5.57;;;2.70;;
11113;SDS011;5610;52.154;9.198;2022-08-21T00:09:38;3.60;;;2.83;;
11113;SDS011;5610;52.154;9.198;2022-08-21T00:12:23;7.33;;;3.27;;
11113;SDS011;5610;52.154;9.198;2022-08-21T00:15:10;4.30;;;3.17;;
11113;SDS011;5610;52.154;9.198;2022-08-21T00:18:02;6.23;;;2.90;;
11113;SDS011;5610;52.154;9.198;2022-08-21T00:20:48;4.63;;;2.50;;
11113;SDS011;5610;52.154;9.198;2022-08-21T00:23:34;3.83;;;2.67;;
11113;SDS011;5610;52.154;9.198;2022-08-21T00:26:19;3.40;;;2.00;;
11113;SDS011;5610;52.154;9.198;2022-08-21T00:29:05;4.00;;;2.80;;
11113;SDS011;5610;52.154;9.198;2022-08-21T00:31:50;5.33;;;2.70;;
11113;SDS011;5610;52.154;9.198;2022-08-21T00:34:37;12.50;;;3.77;;
11113;SDS011;5610;52.154;9.198;2022-08-21T00:37:22;6.80;;;2.87;;
11113;SDS011;5610;52.154;9.198;2022-08-21T00:40:10;4.30;;;3.13;;
11113;SDS011;5610;52.154;9.198;2022-08-21T00:42:57;4.73;;;2.63;;
11113;SDS011;5610;52.154;9.198;2022-08-21T00:45:43;6.20;;;3.00;;
11113;SDS011;5610;52.154;9.198;2022-08-21T00:48:29;8.30;;;3.00;;
11113;SDS011;5610;52.154;9.198;2022-08-21T00:51:19;6.80;;;2.80;;
11113;SDS011;5610;52.154;9.198;2022-08-21T00:54:09;5.30;;;3.10;;
11113;SDS011;5610;52.154;9.198;2022-08-21T00:56:57;5.53;;;3.40;;
11113;SDS011;5610;52.154;9.198;2022-08-21T00:59:46;4.50;;;3.37;;
11113;SDS011;5610;52.154;9.198;2022-08-21T01:02:34;9.63;;;3.37;;
11113;SDS011;5610;52.154;9.198;2022-08-21T01:05:20;3.50;;;2.80;;
11113;SDS011;5610;52.154;9.198;2022-08-21T01:08:07;3.20;;;2.77;;
11113;SDS011;5610;52.154;9.198;2022-08-21T01:10:54;8.20;;;3.47;;
11113;SDS011;5610;52.154;9.198;2022-08-21T01:13:43;4.30;;;3.50;;
11113;SDS011;5610;52.154;9.198;2022-08-21T01:16:30;5.83;;;3.27;;
11113;SDS011;5610;52.154;9.198;2022-08-21T01:19:18;5.70;;;3.80;;
11113;SDS011;5610;52.154;9.198;2022-08-21T01:22:06;4.33;;;3.60;;
11113;SDS011;5610;52.154;9.198;2022-08-21T01:24:52;8.73;;;3.80;;
11113;SDS011;5610;52.154;9.198;2022-08-21T01:27:37;5.40;;;3.50;;
11113;SDS011;5610;52.154;9.198;2022-08-21T01:30:24;4.80;;;3.17;;
11113;SDS011;5610;52.154;9.198;2022-08-21T01:33:10;4.00;;;3.47;;
11113;SDS011;5610;52.154;9.198;2022-08-21T01:35:56;4.47;;;3.60;;
11113;SDS011;5610;52.154;9.198;2022-08-21T01:38:42;4.33;;;3.60;;
11113;SDS011;5610;52.154;9.198;2022-08-21T01:41:28;7.60;;;3.70;;
11113;SDS011;5610;52.154;9.198;2022-08-21T01:44:13;7.30;;;3.77;;
11113;SDS011;5610;52.154;9.198;2022-08-21T01:46:59;6.17;;;3.33;;
11113;SDS011;5610;52.154;9.198;2022-08-21T01:49:45;10.07;;;3.73;;
11113;SDS011;5610;52.154;9.198;2022-08-21T01:52:30;4.97;;;3.60;;
11113;SDS011;5610;52.154;9.198;2022-08-21T01:55:18;9.00;;;3.70;;
11113;SDS011;5610;52.154;9.198;2022-08-21T01:58:04;5.90;;;3.00;;
11113;SDS011;5610;52.154;9.198;2022-08-21T02:00:50;5.00;;;2.97;;
11113;SDS011;5610;52.154;9.198;2022-08-21T02:03:37;4.93;;;2.93;;
11113;SDS011;5610;52.154;9.198;2022-08-21T02:06:23;5.17;;;3.30;;
11113;SDS011;5610;52.154;9.198;2022-08-21T02:09:09;8.50;;;3.50;;
11113;SDS011;5610;52.154;9.198;2022-08-21T02:11:57;4.37;;;3.67;;
11113;SDS011;5610;52.154;9.198;2022-08-21T02:14:42;4.07;;;3.23;;
11113;SDS011;5610;52.154;9.198;2022-08-21T02:17:27;3.90;;;3.37;;
11113;SDS011;5610;52.154;9.198;2022-08-21T02:20:24;5.03;;;3.10;;
11113;SDS011;5610;52.154;9.198;2022-08-21T02:23:11;4.27;;;3.47;;
11113;SDS011;5610;52.154;9.198;2022-08-21T02:25:57;6.00;;;3.50;;
11113;SDS011;5610;52.154;9.198;2022-08-21T02:28:44;6.40;;;4.00;;
11113;SDS011;5610;52.154;9.198;2022-08-21T02:31:30;4.37;;;3.50;;
11113;SDS011;5610;52.154;9.198;2022-08-21T02:34:15;6.43;;;3.50;;
11113;SDS011;5610;52.154;9.198;2022-08-21T02:37:00;4.00;;;3.47;;
11113;SDS011;5610;52.154;9.198;2022-08-21T02:39:46;7.50;;;4.13;;
11113;SDS011;5610;52.154;9.198;2022-08-21T02:42:31;5.93;;;3.90;;
11113;SDS011;5610;52.154;9.198;2022-08-21T02:45:18;5.80;;;3.93;;
11113;SDS011;5610;52.154;9.198;2022-08-21T02:48:05;7.50;;;4.10;;
11113;SDS011;5610;52.154;9.198;2022-08-21T02:50:54;8.07;;;4.33;;
11113;SDS011;5610;52.154;9.198;2022-08-21T02:53:40;7.63;;;4.60;;
11113;SDS011;5610;52.154;9.198;2022-08-21T02:56:26;5.87;;;3.93;;
11113;SDS011;5610;52.154;9.198;2022-08-21T02:59:12;4.33;;;3.87;;
11113;SDS011;5610;52.154;9.198;2022-08-21T03:01:58;6.93;;;4.83;;
11113;SDS011;5610;52.154;9.198;2022-08-21T03:04:43;8.30;;;4.40;;
11113;SDS011;5610;52.154;9.198;2022-08-21T03:07:29;6.10;;;4.00;;
11113;SDS011;5610;52.154;9.198;2022-08-21T03:10:14;5.07;;;4.13;;
11113;SDS011;5610;52.154;9.198;2022-08-21T03:13:00;6.30;;;4.23;;
11113;SDS011;5610;52.154;9.198;2022-08-21T03:15:46;6.47;;;4.47;;
11113;SDS011;5610;52.154;9.198;2022-08-21T03:18:34;6.20;;;4.37;;
11113;SDS011;5610;52.154;9.198;2022-08-21T03:21:19;6.60;;;4.40;;
11113;SDS011;5610;52.154;9.198;2022-08-21T03:24:05;5.33;;;4.27;;
11113;SDS011;5610;52.154;9.198;2022-08-21T03:26:50;6.10;;;4.20;;
11113;SDS011;5610;52.154;9.198;2022-08-21T03:29:35;5.30;;;3.80;;
11113;SDS011;5610;52.154;9.198;2022-08-21T03:32:22;7.23;;;4.27;;
11113;SDS011;5610;52.154;9.198;2022-08-21T03:35:09;6.37;;;3.77;;
11113;SDS011;5610;52.154;9.198;2022-08-21T03:37:54;6.93;;;4.67;;
11113;SDS011;5610;52.154;9.198;2022-08-21T03:40:41;6.10;;;4.83;;
11113;SDS011;5610;52.154;9.198;2022-08-21T03:43:27;5.40;;;4.20;;
11113;SDS011;5610;52.154;9.198;2022-08-21T03:46:12;9.53;;;4.43;;
11113;SDS011;5610;52.154;9.198;2022-08-21T03:48:58;10.67;;;5.50;;
11113;SDS011;5610;52.154;9.198;2022-08-21T03:51:44;6.30;;;4.70;;
11113;SDS011;5610;52.154;9.198;2022-08-21T03:54:30;5.00;;;4.50;;
11113;SDS011;5610;52.154;9.198;2022-08-21T03:57:15;6.03;;;4.70;;
11113;SDS011;5610;52.154;9.198;2022-08-21T04:00:01;7.10;;;4.40;;
11113;SDS011;5610;52.154;9.198;2022-08-21T04:02:49;5.03;;;4.40;;
11113;SDS011;5610;52.154;9.198;2022-08-21T04:05:34;4.50;;;4.10;;
11113;SDS011;5610;52.154;9.198;2022-08-21T04:08:21;5.80;;;4.17;;
11113;SDS011;5610;52.154;9.198;2022-08-21T04:11:06;4.17;;;3.77;;
11113;SDS011;5610;52.154;9.198;2022-08-21T04:13:53;5.83;;;4.10;;
11113;SDS011;5610;52.154;9.198;2022-08-21T04:16:39;9.33;;;3.53;;
11113;SDS011;5610;52.154;9.198;2022-08-21T04:19:25;6.73;;;4.07;;
11113;SDS011;5610;52.154;9.198;2022-08-21T04:22:13;4.70;;;4.03;;
11113;SDS011;5610;52.154;9.198;2022-08-21T04:24:59;7.87;;;3.90;;
11113;SDS011;5610;52.154;9.198;2022-08-21T04:27:44;5.20;;;3.50;;
11113;SDS011;5610;52.154;9.198;2022-08-21T04:30:30;4.97;;;3.97;;
11113;SDS011;5610;52.154;9.198;2022-08-21T04:33:15;5.63;;;3.70;;
11113;SDS011;5610;52.154;9.198;2022-08-21T04:36:01;9.03;;;4.20;;
11113;SDS011;5610;52.154;9.198;2022-08-21T04:38:46;7.00;;;3.23;;
11113;SDS011;5610;52.154;9.198;2022-08-21T04:41:33;4.93;;;4.03;;
11113;SDS011;5610;52.154;9.198;2022-08-21T04:44:19;4.87;;;3.43;;
11113;SDS011;5610;52.154;9.198;2022-08-21T04:47:05;5.73;;;3.80;;
11113;SDS011;5610;52.154;9.198;2022-08-21T04:49:50;5.23;;;4.03;;
11113;SDS011;5610;52.154;9.198;2022-08-21T04:52:36;6.30;;;4.00;;
11113;SDS011;5610;52.154;9.198;2022-08-21T04:55:21;4.97;;;4.03;;
11113;SDS011;5610;52.154;9.198;2022-08-21T04:58:11;6.60;;;4.40;;
11113;SDS011;5610;52.154;9.198;2022-08-21T05:01:00;5.43;;;3.83;;
11113;SDS011;5610;52.154;9.198;2022-08-21T05:03:46;6.13;;;3.83;;
11113;SDS011;5610;52.154;9.198;2022-08-21T05:06:34;9.80;;;4.10;;
11113;SDS011;5610;52.154;9.198;2022-08-21T05:09:21;4.80;;;3.90;;
11113;SDS011;5610;52.154;9.198;2022-08-21T05:12:09;6.43;;;4.20;;
11113;SDS011;5610;52.154;9.198;2022-08-21T05:14:56;9.83;;;4.27;;
11113;SDS011;5610;52.154;9.198;2022-08-21T05:17:42;7.23;;;4.27;;
11113;SDS011;5610;52.154;9.198;2022-08-21T05:20:27;7.43;;;4.27;;
11113;SDS011;5610;52.154;9.198;2022-08-21T05:23:13;8.23;;;4.60;;
11113;SDS011;5610;52.154;9.198;2022-08-21T05:26:00;7.83;;;4.10;;
11113;SDS011;5610;52.154;9.198;2022-08-21T05:28:45;6.00;;;4.37;;
11113;SDS011;5610;52.154;9.198;2022-08-21T05:31:32;7.37;;;4.50;;
11113;SDS011;5610;52.154;9.198;2022-08-21T05:34:18;7.27;;;4.37;;
11113;SDS011;5610;52.154;9.198;2022-08-21T05:37:05;5.40;;;4.30;;
11113;SDS011;5610;52.154;9.198;2022-08-21T05:39:50;5.10;;;4.60;;
11113;SDS011;5610;52.154;9.198;2022-08-21T05:42:36;5.53;;;4.50;;
11113;SDS011;5610;52.154;9.198;2022-08-21T05:45:21;6.97;;;4.87;;
11113;SDS011;5610;52.154;9.198;2022-08-21T05:48:09;7.17;;;4.37;;
11113;SDS011;5610;52.154;9.198;2022-08-21T05:50:56;6.53;;;4.70;;
11113;SDS011;5610;52.154;9.198;2022-08-21T05:53:41;6.23;;;5.13;;
11113;SDS011;5610;52.154;9.198;2022-08-21T05:56:27;5.37;;;4.63;;
11113;SDS011;5610;52.154;9.198;2022-08-21T05:59:13;7.23;;;4.47;;
11113;SDS011;5610;52.154;9.198;2022-08-21T06:01:57;5.90;;;4.73;;
11113;SDS011;5610;52.154;9.198;2022-08-21T06:04:44;5.30;;;4.60;;
11113;SDS011;5610;52.154;9.198;2022-08-21T06:07:29;5.80;;;4.73;;
11113;SDS011;5610;52.154;9.198;2022-08-21T06:10:15;8.67;;;5.70;;
11113;SDS011;5610;52.154;9.198;2022-08-21T06:13:00;8.70;;;5.90;;
11113;SDS011;5610;52.154;9.198;2022-08-21T06:15:45;8.40;;;5.47;;
11113;SDS011;5610;52.154;9.198;2022-08-21T06:18:31;6.97;;;5.20;;
11113;SDS011;5610;52.154;9.198;2022-08-21T06:21:18;7.63;;;5.77;;
11113;SDS011;5610;52.154;9.198;2022-08-21T06:24:04;11.67;;;6.83;;
11113;SDS011;5610;52.154;9.198;2022-08-21T06:26:50;7.03;;;6.10;;
11113;SDS011;5610;52.154;9.198;2022-08-21T06:29:35;6.70;;;5.83;;
11113;SDS011;5610;52.154;9.198;2022-08-21T06:32:21;7.37;;;5.80;;
11113;SDS011;5610;52.154;9.198;2022-08-21T06:35:07;9.27;;;5.60;;
11113;SDS011;5610;52.154;9.198;2022-08-21T06:37:54;6.10;;;5.50;;
11113;SDS011;5610;52.154;9.198;2022-08-21T06:40:40;9.33;;;5.40;;
11113;SDS011;5610;52.154;9.198;2022-08-21T06:43:27;8.80;;;6.40;;
11113;SDS011;5610;52.154;9.198;2022-08-21T06:46:12;10.83;;;5.70;;
11113;SDS011;5610;52.154;9.198;2022-08-21T06:48:57;6.80;;;5.50;;
11113;SDS011;5610;52.154;9.198;2022-08-21T06:51:43;6.10;;;5.50;;
11113;SDS011;5610;52.154;9.198;2022-08-21T06:54:29;8.97;;;6.23;;
11113;SDS011;5610;52.154;9.198;2022-08-21T06:57:16;5.93;;;5.40;;
11113;SDS011;5610;52.154;9.198;2022-08-21T07:00:03;7.50;;;5.50;;
11113;SDS011;5610;52.154;9.198;2022-08-21T07:02:49;12.50;;;6.30;;
11113;SDS011;5610;52.154;9.198;2022-08-21T07:05:34;8.70;;;6.90;;
11113;SDS011;5610;52.154;9.198;2022-08-21T07:08:20;10.33;;;6.30;;
11113;SDS011;5610;52.154;9.198;2022-08-21T07:11:09;7.23;;;6.03;;
11113;SDS011;5610;52.154;9.198;2022-08-21T07:13:58;7.50;;;6.10;;
11113;SDS011;5610;52.154;9.198;2022-08-21T07:16:43;7.57;;;6.43;;
11113;SDS011;5610;52.154;9.198;2022-08-21T07:19:28;10.30;;;6.30;;
11113;SDS011;5610;52.154;9.198;2022-08-21T07:22:14;8.67;;;6.03;;
11113;SDS011;5610;52.154;9.198;2022-08-21T07:25:03;9.93;;;6.90;;
11113;SDS011;5610;52.154;9.198;2022-08-21T07:27:50;9.30;;;7.30;;
11113;SDS011;5610;52.154;9.198;2022-08-21T07:30:35;15.43;;;6.80;;
11113;SDS011;5610;52.154;9.198;2022-08-21T07:33:20;9.70;;;7.17;;
11113;SDS011;5610;52.154;9.198;2022-08-21T07:36:06;9.07;;;6.93;;
11113;SDS011;5610;52.154;9.198;2022-08-21T07:38:52;9.30;;;6.03;;
11113;SDS011;5610;52.154;9.198;2022-08-21T07:41:37;8.67;;;6.30;;
11113;SDS011;5610;52.154;9.198;2022-08-21T07:44:24;8.30;;;7.03;;
11113;SDS011;5610;52.154;9.198;2022-08-21T07:47:09;14.73;;;6.57;;
11113;SDS011;5610;52.154;9.198;2022-08-21T07:49:54;7.87;;;6.13;;
11113;SDS011;5610;52.154;9.198;2022-08-21T07:52:41;5.13;;;4.67;;
11113;SDS011;5610;52.154;9.198;2022-08-21T07:55:27;6.93;;;5.17;;
11113;SDS011;5610;52.154;9.198;2022-08-21T07:58:12;5.90;;;4.77;;
11113;SDS011;5610;52.154;9.198;2022-08-21T08:00:59;7.00;;;4.37;;
11113;SDS011;5610;52.154;9.198;2022-08-21T08:03:45;5.80;;;3.93;;
11113;SDS011;5610;52.154;9.198;2022-08-21T08:06:30;9.47;;;4.20;;
11113;SDS011;5610;52.154;9.198;2022-08-21T08:09:16;6.80;;;3.83;;
11113;SDS011;5610;52.154;9.198;2022-08-21T08:12:01;8.17;;;3.23;;
11113;SDS011;5610;52.154;9.198;2022-08-21T08:14:47;6.80;;;3.00;;
11113;SDS011;5610;52.154;9.198;2022-08-21T08:17:35;6.10;;;3.00;;
11113;SDS011;5610;52.154;9.198;2022-08-21T08:20:21;7.37;;;3.70;;
11113;SDS011;5610;52.154;9.198;2022-08-21T08:23:10;8.53;;;3.57;;
11113;SDS011;5610;52.154;9.198;2022-08-21T08:25:55;5.50;;;3.30;;
11113;SDS011;5610;52.154;9.198;2022-08-21T08:28:40;7.20;;;4.00;;
11113;SDS011;5610;52.154;9.198;2022-08-21T08:31:26;9.17;;;3.77;;
11113;SDS011;5610;52.154;9.198;2022-08-21T08:34:13;7.27;;;3.83;;
11113;SDS011;5610;52.154;9.198;2022-08-21T08:36:58;14.87;;;3.73;;
11113;SDS011;5610;52.154;9.198;2022-08-21T08:39:44;5.77;;;3.50;;
11113;SDS011;5610;52.154;9.198;2022-08-21T08:42:30;4.73;;;2.80;;
11113;SDS011;5610;52.154;9.198;2022-08-21T08:45:18;7.43;;;3.87;;
11113;SDS011;5610;52.154;9.198;2022-08-21T08:48:09;8.17;;;3.63;;
11113;SDS011;5610;52.154;9.198;2022-08-21T08:50:59;7.40;;;3.33;;
11113;SDS011;5610;52.154;9.198;2022-08-21T08:53:50;5.97;;;3.30;;
11113;SDS011;5610;52.154;9.198;2022-08-21T08:56:37;6.13;;;3.43;;
11113;SDS011;5610;52.154;9.198;2022-08-21T08:59:23;6.40;;;3.17;;
11113;SDS011;5610;52.154;9.198;2022-08-21T09:02:11;7.40;;;3.00;;
11113;SDS011;5610;52.154;9.198;2022-08-21T09:04:58;6.00;;;3.27;;
11113;SDS011;5610;52.154;9.198;2022-08-21T09:07:47;5.17;;;2.70;;
11113;SDS011;5610;52.154;9.198;2022-08-21T09:10:45;5.80;;;2.80;;
11113;SDS011;5610;52.154;9.198;2022-08-21T09:13:43;4.80;;;2.20;;
11113;SDS011;5610;52.154;9.198;2022-08-21T09:16:37;5.23;;;2.63;;
11113;SDS011;5610;52.154;9.198;2022-08-21T09:19:33;4.63;;;2.13;;
11113;SDS011;5610;52.154;9.198;2022-08-21T09:22:33;4.77;;;2.33;;
11113;SDS011;5610;52.154;9.198;2022-08-21T09:25:30;4.10;;;2.37;;
11113;SDS011;5610;52.154;9.198;2022-08-21T09:28:19;6.80;;;2.00;;
11113;SDS011;5610;52.154;9.198;2022-08-21T09:31:05;3.43;;;2.03;;
11113;SDS011;5610;52.154;9.198;2022-08-21T09:33:56;5.40;;;2.10;;
11113;SDS011;5610;52.154;9.198;2022-08-21T09:36:43;5.43;;;2.10;;
11113;SDS011;5610;52.154;9.198;2022-08-21T09:39:32;4.63;;;2.37;;
11113;SDS011;5610;52.154;9.198;2022-08-21T09:42:25;6.77;;;2.57;;
11113;SDS011;5610;52.154;9.198;2022-08-21T09:45:13;2.97;;;2.00;;
11113;SDS011;5610;52.154;9.198;2022-08-21T09:48:08;4.87;;;1.93;;
11113;SDS011;5610;52.154;9.198;2022-08-21T09:51:04;5.40;;;2.40;;
11113;SDS011;5610;52.154;9.198;2022-08-21T09:53:55;4.37;;;2.67;;
11113;SDS011;5610;52.154;9.198;2022-08-21T09:56:51;5.67;;;2.57;;
11113;SDS011;5610;52.154;9.198;2022-08-21T10:00:10;7.80;;;2.33;;
11113;SDS011;5610;52.154;9.198;2022-08-21T10:03:10;5.87;;;2.10;;
11113;SDS011;5610;52.154;9.198;2022-08-21T10:05:57;3.60;;;1.87;;
11113;SDS011;5610;52.154;9.198;2022-08-21T10:08:45;4.87;;;2.53;;
11113;SDS011;5610;52.154;9.198;2022-08-21T10:11:30;5.70;;;2.40;;
11113;SDS011;5610;52.154;9.198;2022-08-21T10:14:17;7.07;;;2.70;;
11113;SDS011;5610;52.154;9.198;2022-08-21T10:17:14;6.90;;;2.30;;
11113;SDS011;5610;52.154;9.198;2022-08-21T10:20:06;6.60;;;2.57;;
11113;SDS011;5610;52.154;9.198;2022-08-21T10:23:00;7.37;;;2.67;;
11113;SDS011;5610;52.154;9.198;2022-08-21T10:25:53;4.33;;;2.07;;
11113;SDS011;5610;52.154;9.198;2022-08-21T10:28:44;4.17;;;2.33;;
11113;SDS011;5610;52.154;9.198;2022-08-21T10:31:43;4.10;;;2.33;;
11113;SDS011;5610;52.154;9.198;2022-08-21T10:34:39;4.07;;;1.83;;
11113;SDS011;5610;52.154;9.198;2022-08-21T10:37:32;3.63;;;1.87;;
11113;SDS011;5610;52.154;9.198;2022-08-21T10:40:33;3.30;;;1.97;;
11113;SDS011;5610;52.154;9.198;2022-08-21T10:43:24;3.30;;;2.23;;
11113;SDS011;5610;52.154;9.198;2022-08-21T10:46:17;4.30;;;1.93;;
11113;SDS011;5610;52.154;9.198;2022-08-21T10:49:20;4.07;;;2.00;;
11113;SDS011;5610;52.154;9.198;2022-08-21T10:52:24;7.60;;;2.47;;
11113;SDS011;5610;52.154;9.198;2022-08-21T10:55:18;3.60;;;2.23;;
11113;SDS011;5610;52.154;9.198;2022-08-21T10:58:08;2.40;;;1.80;;
11113;SDS011;5610;52.154;9.198;2022-08-21T11:00:58;5.23;;;1.90;;
11113;SDS011;5610;52.154;9.198;2022-08-21T11:03:54;2.83;;;1.60;;
11113;SDS011;5610;52.154;9.198;2022-08-21T11:06:53;5.70;;;1.77;;
11113;SDS011;5610;52.154;9.198;2022-08-21T11:09:47;2.70;;;1.60;;
11113;SDS011;5610;52.154;9.198;2022-08-21T11:12:34;4.20;;;1.87;;
11113;SDS011;5610;52.154;9.198;2022-08-21T11:15:33;5.80;;;2.43;;
11113;SDS011;5610;52.154;9.198;2022-08-21T11:18:24;3.60;;;1.40;;
11113;SDS011;5610;52.154;9.198;2022-08-21T11:21:20;12.17;;;2.37;;
11113;SDS011;5610;52.154;9.198;2022-08-21T11:24:17;3.77;;;2.20;;
11113;SDS011;5610;52.154;9.198;2022-08-21T11:27:13;3.80;;;1.97;;
11113;SDS011;5610;52.154;9.198;2022-08-21T11:30:05;3.40;;;1.80;;
11113;SDS011;5610;52.154;9.198;2022-08-21T11:32:56;3.00;;;1.87;;
11113;SDS011;5610;52.154;9.198;2022-08-21T11:35:51;2.77;;;1.80;;
11113;SDS011;5610;52.154;9.198;2022-08-21T11:38:49;4.33;;;1.80;;
11113;SDS011;5610;52.154;9.198;2022-08-21T11:41:43;3.53;;;1.53;;
11113;SDS011;5610;52.154;9.198;2022-08-21T11:44:40;4.40;;;1.73;;
11113;SDS011;5610;52.154;9.198;2022-08-21T11:47:40;2.37;;;1.60;;
11113;SDS011;5610;52.154;9.198;2022-08-21T11:50:34;5.60;;;2.20;;
11113;SDS011;5610;52.154;9.198;2022-08-21T11:53:23;3.23;;;1.77;;
11113;SDS011;5610;52.154;9.198;2022-08-21T11:56:16;4.57;;;1.90;;
11113;SDS011;5610;52.154;9.198;2022-08-21T11:59:06;5.03;;;1.73;;
11113;SDS011;5610;52.154;9.198;2022-08-21T12:01:57;3.37;;;1.87;;
11113;SDS011;5610;52.154;9.198;2022-08-21T12:04:44;3.77;;;1.77;;
11113;SDS011;5610;52.154;9.198;2022-08-21T12:07:33;4.77;;;2.20;;
11113;SDS011;5610;52.154;9.198;2022-08-21T12:10:30;3.90;;;1.73;;
11113;SDS011;5610;52.154;9.198;2022-08-21T12:13:24;3.17;;;1.67;;
11113;SDS011;5610;52.154;9.198;2022-08-21T12:16:12;3.97;;;1.93;;
11113;SDS011;5610;52.154;9.198;2022-08-21T12:19:04;3.00;;;1.83;;
11113;SDS011;5610;52.154;9.198;2022-08-21T12:21:51;4.03;;;2.10;;
11113;SDS011;5610;52.154;9.198;2022-08-21T12:24:43;5.83;;;1.80;;
11113;SDS011;5610;52.154;9.198;2022-08-21T12:27:39;3.80;;;2.10;;
11113;SDS011;5610;52.154;9.198;2022-08-21T12:30:33;2.77;;;1.80;;
11113;SDS011;5610;52.154;9.198;2022-08-21T12:33:21;4.00;;;1.87;;
11113;SDS011;5610;52.154;9.198;2022-08-21T12:36:12;4.47;;;2.13;;
11113;SDS011;5610;52.154;9.198;2022-08-21T12:39:03;6.00;;;2.73;;
11113;SDS011;5610;52.154;9.198;2022-08-21T12:41:56;8.33;;;2.60;;
11113;SDS011;5610;52.154;9.198;2022-08-21T12:44:48;4.17;;;2.40;;
11113;SDS011;5610;52.154;9.198;2022-08-21T12:47:43;5.50;;;2.60;;
11113;SDS011;5610;52.154;9.198;2022-08-21T12:50:35;3.27;;;2.30;;
11113;SDS011;5610;52.154;9.198;2022-08-21T12:53:26;3.93;;;2.37;;
11113;SDS011;5610;52.154;9.198;2022-08-21T12:56:16;6.17;;;2.53;;
11113;SDS011;5610;52.154;9.198;2022-08-21T12:59:05;5.33;;;2.43;;
11113;SDS011;5610;52.154;9.198;2022-08-21T13:01:52;4.20;;;2.10;;
11113;SDS011;5610;52.154;9.198;2022-08-21T13:04:40;6.73;;;2.73;;
11113;SDS011;5610;52.154;9.198;2022-08-21T13:07:27;3.53;;;2.40;;
11113;SDS011;5610;52.154;9.198;2022-08-21T13:10:18;3.83;;;2.57;;
11113;SDS011;5610;52.154;9.198;2022-08-21T13:13:07;6.67;;;2.50;;
11113;SDS011;5610;52.154;9.198;2022-08-21T13:16:00;4.23;;;2.30;;
11113;SDS011;5610;52.154;9.198;2022-08-21T13:18:52;5.60;;;2.37;;
11113;SDS011;5610;52.154;9.198;2022-08-21T13:21:42;3.27;;;2.00;;
11113;SDS011;5610;52.154;9.198;2022-08-21T13:24:28;3.60;;;2.30;;
11113;SDS011;5610;52.154;9.198;2022-08-21T13:27:18;6.40;;;2.40;;
11113;SDS011;5610;52.154;9.198;2022-08-21T13:30:07;4.57;;;2.00;;
11113;SDS011;5610;52.154;9.198;2022-08-21T13:32:59;2.57;;;2.00;;
11113;SDS011;5610;52.154;9.198;2022-08-21T13:35:48;4.17;;;2.03;;
11113;SDS011;5610;52.154;9.198;2022-08-21T13:38:36;3.27;;;2.33;;
11113;SDS011;5610;52.154;9.198;2022-08-21T13:41:24;4.70;;;2.30;;
11113;SDS011;5610;52.154;9.198;2022-08-21T13:44:17;3.47;;;2.10;;
11113;SDS011;5610;52.154;9.198;2022-08-21T13:47:04;4.93;;;2.37;;
11113;SDS011;5610;52.154;9.198;2022-08-21T13:49:51;6.43;;;2.10;;
11113;SDS011;5610;52.154;9.198;2022-08-21T13:52:44;3.33;;;1.97;;
11113;SDS011;5610;52.154;9.198;2022-08-21T13:55:34;2.70;;;1.83;;
11113;SDS011;5610;52.154;9.198;2022-08-21T13:58:25;2.40;;;1.77;;
11113;SDS011;5610;52.154;9.198;2022-08-21T14:01:18;3.23;;;2.00;;
11113;SDS011;5610;52.154;9.198;2022-08-21T14:04:07;2.77;;;1.83;;
11113;SDS011;5610;52.154;9.198;2022-08-21T14:07:01;2.93;;;1.70;;
11113;SDS011;5610;52.154;9.198;2022-08-21T14:09:47;3.17;;;2.20;;
11113;SDS011;5610;52.154;9.198;2022-08-21T14:12:35;6.23;;;2.20;;
11113;SDS011;5610;52.154;9.198;2022-08-21T14:15:26;5.60;;;2.20;;
11113;SDS011;5610;52.154;9.198;2022-08-21T14:18:16;4.40;;;2.03;;
11113;SDS011;5610;52.154;9.198;2022-08-21T14:21:03;3.60;;;1.90;;
11113;SDS011;5610;52.154;9.198;2022-08-21T14:23:58;5.47;;;1.83;;
11113;SDS011;5610;52.154;9.198;2022-08-21T14:26:48;2.40;;;1.77;;
11113;SDS011;5610;52.154;9.198;2022-08-21T14:29:37;4.10;;;2.30;;
11113;SDS011;5610;52.154;9.198;2022-08-21T14:32:25;6.10;;;1.90;;
11113;SDS011;5610;52.154;9.198;2022-08-21T14:35:15;3.20;;;2.20;;
11113;SDS011;5610;52.154;9.198;2022-08-21T14:38:01;6.13;;;2.20;;
11113;SDS011;5610;52.154;9.198;2022-08-21T14:40:48;3.67;;;2.30;;
11113;SDS011;5610;52.154;9.198;2022-08-21T14:43:35;2.90;;;2.27;;
11113;SDS011;5610;52.154;9.198;2022-08-21T14:46:21;3.10;;;2.13;;
11113;SDS011;5610;52.154;9.198;2022-08-21T14:49:09;3.10;;;2.27;;
11113;SDS011;5610;52.154;9.198;2022-08-21T14:51:57;2.83;;;2.50;;
11113;SDS011;5610;52.154;9.198;2022-08-21T14:54:42;3.27;;;2.40;;
11113;SDS011;5610;52.154;9.198;2022-08-21T14:57:29;5.07;;;2.50;;
11113;SDS011;5610;52.154;9.198;2022-08-21T15:00:17;5.40;;;2.73;;
11113;SDS011;5610;52.154;9.198;2022-08-21T15:03:04;5.20;;;2.70;;
11113;SDS011;5610;52.154;9.198;2022-08-21T15:05:50;3.30;;;2.33;;
11113;SDS011;5610;52.154;9.198;2022-08-21T15:08:38;3.73;;;2.17;;
11113;SDS011;5610;52.154;9.198;2022-08-21T15:11:23;4.23;;;2.57;;
11113;SDS011;5610;52.154;9.198;2022-08-21T15:14:10;3.87;;;2.30;;
11113;SDS011;5610;52.154;9.198;2022-08-21T15:17:06;5.57;;;2.80;;
11113;SDS011;5610;52.154;9.198;2022-08-21T15:19:53;5.30;;;2.37;;
11113;SDS011;5610;52.154;9.198;2022-08-21T15:22:38;3.63;;;2.53;;
11113;SDS011;5610;52.154;9.198;2022-08-21T15:25:25;3.97;;;2.47;;
11113;SDS011;5610;52.154;9.198;2022-08-21T15:28:11;3.40;;;2.60;;
11113;SDS011;5610;52.154;9.198;2022-08-21T15:30:56;3.43;;;2.20;;
11113;SDS011;5610;52.154;9.198;2022-08-21T15:33:44;4.83;;;2.10;;
11113;SDS011;5610;52.154;9.198;2022-08-21T15:36:29;4.30;;;2.33;;
11113;SDS011;5610;52.154;9.198;2022-08-21T15:39:14;5.00;;;2.20;;
11113;SDS011;5610;52.154;9.198;2022-08-21T15:42:01;4.43;;;2.23;;
11113;SDS011;5610;52.154;9.198;2022-08-21T15:44:47;8.90;;;2.60;;
11113;SDS011;5610;52.154;9.198;2022-08-21T15:47:34;7.47;;;2.70;;
11113;SDS011;5610;52.154;9.198;2022-08-21T15:50:21;4.90;;;2.67;;
11113;SDS011;5610;52.154;9.198;2022-08-21T15:53:07;6.40;;;2.20;;
11113;SDS011;5610;52.154;9.198;2022-08-21T15:55:53;3.20;;;2.03;;
11113;SDS011;5610;52.154;9.198;2022-08-21T15:58:39;5.13;;;2.90;;
11113;SDS011;5610;52.154;9.198;2022-08-21T16:01:25;3.50;;;2.20;;
11113;SDS011;5610;52.154;9.198;2022-08-21T16:04:11;4.27;;;2.57;;
11113;SDS011;5610;52.154;9.198;2022-08-21T16:07:00;5.53;;;2.40;;
11113;SDS011;5610;52.154;9.198;2022-08-21T16:09:45;2.90;;;2.10;;
11113;SDS011;5610;52.154;9.198;2022-08-21T16:12:32;4.17;;;2.30;;
11113;SDS011;5610;52.154;9.198;2022-08-21T16:15:24;10.33;;;3.00;;
11113;SDS011;5610;52.154;9.198;2022-08-21T16:18:10;2.77;;;1.90;;
11113;SDS011;5610;52.154;9.198;2022-08-21T16:20:56;7.80;;;2.57;;
11113;SDS011;5610;52.154;9.198;2022-08-21T16:23:42;4.20;;;2.50;;
11113;SDS011;5610;52.154;9.198;2022-08-21T16:26:27;5.80;;;2.50;;
11113;SDS011;5610;52.154;9.198;2022-08-21T16:29:13;2.97;;;2.40;;
11113;SDS011;5610;52.154;9.198;2022-08-21T16:32:00;4.27;;;2.27;;
11113;SDS011;5610;52.154;9.198;2022-08-21T16:34:46;4.27;;;2.30;;
11113;SDS011;5610;52.154;9.198;2022-08-21T16:37:33;5.73;;;2.30;;
11113;SDS011;5610;52.154;9.198;2022-08-21T16:40:18;4.00;;;2.30;;
11113;SDS011;5610;52.154;9.198;2022-08-21T16:43:05;4.10;;;2.07;;
11113;SDS011;5610;52.154;9.198;2022-08-21T16:45:51;3.43;;;2.23;;
11113;SDS011;5610;52.154;9.198;2022-08-21T16:48:38;3.30;;;1.83;;
11113;SDS011;5610;52.154;9.198;2022-08-21T16:51:25;3.30;;;2.07;;
11113;SDS011;5610;52.154;9.198;2022-08-21T16:54:10;2.90;;;1.63;;
11113;SDS011;5610;52.154;9.198;2022-08-21T16:56:56;3.07;;;1.80;;
11113;SDS011;5610;52.154;9.198;2022-08-21T16:59:43;4.23;;;1.97;;
11113;SDS011;5610;52.154;9.198;2022-08-21T17:02:29;3.40;;;1.93;;
11113;SDS011;5610;52.154;9.198;2022-08-21T17:05:17;3.50;;;2.13;;
11113;SDS011;5610;52.154;9.198;2022-08-21T17:08:03;3.50;;;1.83;;